Home > Products > Valid Products > MTR

000
SAUS43 KDTX 012154
MTRP58
METAR KP58 012151Z AUTO VRB05KT 26/13 A2981 RMK AO1 SLP088 T02610133





000
SAUS43 KDTX 012154
MTRP58
METAR KP58 012151Z AUTO VRB05KT 26/13 A2981 RMK AO1 SLP088 T02610133





000
SAUS43 KDTX 012054
MTRP58
METAR KP58 012051Z AUTO 22006KT 23/14 A2983 RMK AO1 SLP097 T02280139
56007





000
SAUS43 KDTX 012054
MTRP58
METAR KP58 012051Z AUTO 22006KT 23/14 A2983 RMK AO1 SLP097 T02280139
56007





000
SAUS43 KDTX 011953
MTRP58
METAR KP58 011951Z AUTO 29004KT 24/13 A2984 RMK AO1 SLP098 T02440133





000
SAUS43 KDTX 011953
MTRP58
METAR KP58 011951Z AUTO 29004KT 24/13 A2984 RMK AO1 SLP098 T02440133





000
SAUS43 KDTX 011852
MTRP58
METAR KP58 011851Z AUTO 28005G15KT 26/14 A2984 RMK AO1 SLP096
T02560139





000
SAUS43 KDTX 011754
MTRP58
METAR KP58 011751Z AUTO VRB04KT 24/15 A2985 RMK AO1 SLP101 T02440150
10250 20172 58003





000
SAUS43 KDTX 011652
MTRP58
METAR KP58 011651Z AUTO 29007KT 250V320 24/14 A2986 RMK AO1 SLP105
T02440139





000
SAUS43 KDTX 011553
MTRP58
METAR KP58 011551Z AUTO VRB06KT 24/13 A2986 RMK AO1 SLP104 T02390133





000
SAUS43 KDTX 011553
MTRP58
METAR KP58 011551Z AUTO VRB06KT 24/13 A2986 RMK AO1 SLP104 T02390133





000
SAUS43 KDTX 011452
MTRP58
METAR KP58 011451Z AUTO VRB05KT 23/16 A2986 RMK AO1 SLP105 T02330156
58001





000
SAUS43 KDTX 011352
MTRP58
METAR KP58 011351Z AUTO 25006KT 22/16 A2986 RMK AO1 SLP105 T02170161





000
SAUS43 KDTX 011352
MTRP58
METAR KP58 011351Z AUTO 25006KT 22/16 A2986 RMK AO1 SLP105 T02170161





000
SAUS43 KDTX 011254
MTRP58
METAR KP58 011251Z AUTO VRB05KT 20/16 A2986 RMK AO1 SLP106 T02000161





000
SAUS43 KDTX 011254
MTRP58
METAR KP58 011251Z AUTO VRB05KT 20/16 A2986 RMK AO1 SLP106 T02000161





000
SAUS43 KDTX 011153
MTRP58
METAR KP58 011151Z AUTO 23005KT 17/14 A2986 RMK AO1 SLP107 70010
T01720144 10206 20144 52005





000
SAUS43 KDTX 011053
MTRP58
METAR KP58 011051Z AUTO 23005KT 15/14 A2986 RMK AO1 SLP107 T01500139





000
SAUS43 KDTX 010953
MTRP58
METAR KP58 010951Z AUTO 24005KT 14/13 A2985 RMK AO1 SLP104 T01440133





000
SAUS43 KDTX 010852
MTRP58
METAR KP58 010851Z AUTO 24005KT 15/14 A2985 RMK AO1 SLP103 T01500139
50000





000
SAUS43 KDTX 010852
MTRP58
METAR KP58 010851Z AUTO 24005KT 15/14 A2985 RMK AO1 SLP103 T01500139
50000





000
SAUS43 KDTX 010754
MTRP58
METAR KP58 010751Z AUTO VRB06KT 16/14 A2985 RMK AO1 SLP100 T01610139





000
SAUS43 KDTX 010754
MTRP58
METAR KP58 010751Z AUTO VRB06KT 16/14 A2985 RMK AO1 SLP100 T01610139





000
SAUS43 KDTX 010657 COR
MTRP58
METAR KP58 010651Z AUTO 30008KT 19/14 A2985 RMK AO1 SLP099 T01940144





000
SAUS43 KDTX 010654 COR
MTRP58
METAR KP58 010651Z AUTO 30008KT 19/14 A2985 RMK AO1 SLP099 T01940144





000
SAUS43 KDTX 010654 COR
MTRP58
METAR KP58 010651Z AUTO 30008KT 19/14 A2985 RMK AO1 SLP099 T01940144





000
SAUS43 KDTX 010557 COR
MTRP58
METAR KP58 010551Z AUTO 30009KT 20/14 A2985 RMK AO1 SLP099 T02000144
10233 20183 51004





000
SAUS43 KDTX 010557 COR
MTRP58
METAR KP58 010551Z AUTO 30009KT 20/14 A2985 RMK AO1 SLP099 T02000144
10233 20183 51004





000
SAUS43 KDTX 010554 COR
MTRP58
METAR KP58 010551Z AUTO 30009KT 20/14 A2985 RMK AO1 SLP099 T02000144
10233 20183 51004





000
SAUS43 KDTX 010554 COR
MTRP58
METAR KP58 010551Z AUTO 30009KT 20/14 A2985 RMK AO1 SLP099 T02000144
10233 20183 51004





000
SAUS43 KDTX 010553
MTRP58
METAR KP58 010551Z AUTO 30009KT 20/14 A2985 RMK AO1 SLP099 T02000144
10233 20183 51004





000
SAUS43 KDTX 010454
MTRP58
METAR KP58 010451Z AUTO 30012G17KT 21/14 A2985 RMK AO1 SLP097
T02110139 402830172





000
SAUS43 KDTX 010354
MTRP58
METAR KP58 010351Z AUTO 28008KT 19/14 A2984 RMK AO1 SLP098 T01890139





000
SAUS43 KDTX 010252
MTRP58
METAR KP58 010251Z AUTO 25004KT 18/16 A2984 RMK AO1 SLP096 T01830156
51019





000
SAUS43 KDTX 010152
MTRP58
METAR KP58 010151Z AUTO 32004KT 22/16 A2983 RMK AO1 SLP093 T02170161





000
SAUS43 KDTX 010054
MTRP58
METAR KP58 010051Z AUTO 01008KT 22/17 A2981 RMK AO1 SLP088 T02220172





000
SAUS43 KDTX 312354
MTRP58
METAR KP58 312351Z AUTO 28003KT 22/18 A2978 RMK AO1 SLP078 60010
T02170183 10283 20194 58002





000
SAUS43 KDTX 312254
MTRP58
METAR KP58 312251Z AUTO 22003KT 21/18 A2977 RMK AO1 SLP077 P0010
T02110178





000
SAUS43 KDTX 312254
MTRP58
METAR KP58 312251Z AUTO 22003KT 21/18 A2977 RMK AO1 SLP077 P0010
T02110178





000
SAUS43 KDTX 312153
MTRP58
METAR KP58 312151Z AUTO 27011G19KT 22/17 A2981 RMK AO1 PRESRR SLP089
T02220172





000
SAUS43 KDTX 312054
MTRP58
METAR KP58 312051Z AUTO 00000KT 22/16 A2978 RMK AO1 SLP080 T02220156
56004





000
SAUS43 KDTX 311954
MTRP58
METAR KP58 311951Z AUTO 30008G17KT 27/13 A2979 RMK AO1 SLP079
T02670133





000
SAUS43 KDTX 311954
MTRP58
METAR KP58 311951Z AUTO 30008G17KT 27/13 A2979 RMK AO1 SLP079
T02670133





000
SAUS43 KDTX 311852
MTRP58
METAR KP58 311851Z AUTO 25011G19KT 220V300 27/14 A2979 RMK AO1
SLP081 T02670144





000
SAUS43 KDTX 311754
MTRP58
METAR KP58 311751Z AUTO 25012G22KT 210V300 28/14 A2980 RMK AO1
SLP082 T02780139 10283 20200 58014





000
SAUS43 KDTX 311654
MTRP58
METAR KP58 311651Z AUTO 28009G15KT 27/16 A2982 RMK AO1 SLP090
T02720156





000
SAUS43 KDTX 311554
MTRP58
METAR KP58 311551Z AUTO 28009KT 27/17 A2984 RMK AO1 SLP095 T02670167





000
SAUS43 KDTX 311454
MTRP58
METAR KP58 311451Z AUTO 25007KT 26/17 A2984 RMK AO1 SLP096 T02560172
58012





000
SAUS43 KDTX 311454
MTRP58
METAR KP58 311451Z AUTO 25007KT 26/17 A2984 RMK AO1 SLP096 T02560172
58012





000
SAUS43 KDTX 311354
MTRP58
METAR KP58 311351Z AUTO 24008KT 24/18 A2985 RMK AO1 SLP101 T02390178





000
SAUS43 KDTX 311252
MTRP58
METAR KP58 311251Z AUTO 24007KT 22/17 A2987 RMK AO1 SLP106 T02170172





000
SAUS43 KDTX 311252
MTRP58
METAR KP58 311251Z AUTO 24007KT 22/17 A2987 RMK AO1 SLP106 T02170172





000
SAUS43 KDTX 311152
MTRP58
METAR KP58 311151Z AUTO 23008KT 20/17 A2987 RMK AO1 SLP110 T02000167
10200 20172 53003





000
SAUS43 KDTX 311057 COR
MTRP58
METAR KP58 311051Z AUTO 23005KT 18/16 A2987 RMK AO1 SLP105 T01780156





000
SAUS43 KDTX 311057 COR
MTRP58
METAR KP58 311051Z AUTO 23005KT 18/16 A2987 RMK AO1 SLP105 T01780156





000
SAUS43 KDTX 311054 COR
MTRP58
METAR KP58 311051Z AUTO 23005KT 18/16 A2987 RMK AO1 SLP105 T01780156





000
SAUS43 KDTX 310952
MTRP58
METAR KP58 310951Z AUTO 25005KT 18/16 A2986 RMK AO1 SLP104 T01780156





000
SAUS43 KDTX 310852
MTRP58
METAR KP58 310851Z AUTO 23005KT 18/16 A2987 RMK AO1 SLP105 T01780156
56009





000
SAUS43 KDTX 310754
MTRP58
METAR KP58 310751Z AUTO 22004KT 18/15 A2987 RMK AO1 SLP107 T01830150





000
SAUS43 KDTX 310653
MTRP58
METAR KP58 310651Z AUTO 19004KT 18/15 A2989 RMK AO1 SLP112 T01830150





000
SAUS43 KDTX 310653
MTRP58
METAR KP58 310651Z AUTO 19004KT 18/15 A2989 RMK AO1 SLP112 T01830150





000
SAUS43 KDTX 310553
MTRP58
METAR KP58 310551Z AUTO 20003KT 18/16 A2989 RMK AO1 SLP116 T01780161
10228 20172 58004





000
SAUS43 KDTX 310553
MTRP58
METAR KP58 310551Z AUTO 20003KT 18/16 A2989 RMK AO1 SLP116 T01780161
10228 20172 58004





000
SAUS43 KDTX 310452
MTRP58
METAR KP58 310451Z AUTO 19003KT 18/16 A2990 RMK AO1 SLP118 T01780161
402890172





000
SAUS43 KDTX 310352
MTRP58
METAR KP58 310351Z AUTO 16003KT 19/16 A2990 RMK AO1 SLP119 T01940161





000
SAUS43 KDTX 310352
MTRP58
METAR KP58 310351Z AUTO 16003KT 19/16 A2990 RMK AO1 SLP119 T01940161





000
SAUS43 KDTX 310252
MTRP58
METAR KP58 310251Z AUTO 06004KT 22/16 A2991 RMK AO1 SLP118 T02170161
53013





000
SAUS43 KDTX 310252
MTRP58
METAR KP58 310251Z AUTO 06004KT 22/16 A2991 RMK AO1 SLP118 T02170161
53013





000
SAUS43 KDTX 310154
MTRP58
METAR KP58 310151Z AUTO 08005KT 22/17 A2990 RMK AO1 SLP117 T02170172





000
SAUS43 KDTX 310054
MTRP58
METAR KP58 310051Z AUTO 12003KT 22/17 A2987 RMK AO1 SLP109 T02170167





000
SAUS43 KDTX 302352
MTRP58
METAR KP58 302351Z AUTO 05008KT 22/17 A2987 RMK AO1 SLP108 T02220172
10289 20222 53008





000
SAUS43 KDTX 302254
MTRP58
METAR KP58 302251Z AUTO 29008G18KT 28/13 A2985 RMK AO1 SLP099
T02830128





000
SAUS43 KDTX 302154
MTRP58
METAR KP58 302151Z AUTO 27010G18KT 29/11 A2984 RMK AO1 SLP097
T02890111





000
SAUS43 KDTX 302054
MTRP58
METAR KP58 302051Z AUTO 28010G22KT 29/12 A2984 RMK AO1 SLP097
T02890122 56007





000
SAUS43 KDTX 302054
MTRP58
METAR KP58 302051Z AUTO 28010G22KT 29/12 A2984 RMK AO1 SLP097
T02890122 56007





000
SAUS43 KDTX 301952
MTRP58
METAR KP58 301951Z AUTO 26009G16KT 230V300 29/13 A2985 RMK AO1
SLP098 T02890133





000
SAUS43 KDTX 301852
MTRP58
METAR KP58 301851Z AUTO 25010G20KT 28/14 A2985 RMK AO1 SLP100
T02780144





000
SAUS43 KDTX 301757 COR
MTRP58
METAR KP58 301751Z AUTO VRB06G18KT 27/16 A2986 RMK AO1 SLP104
T02720156 10272 20200 58002





000
SAUS43 KDTX 301757 COR
MTRP58
METAR KP58 301751Z AUTO VRB06G18KT 27/16 A2986 RMK AO1 SLP104
T02720156 10272 20200 58002





000
SAUS43 KDTX 301754 COR
MTRP58
METAR KP58 301751Z AUTO VRB06G18KT 27/16 A2986 RMK AO1 SLP104
T02720156 10272 20200 58002





000
SAUS43 KDTX 301657 COR
MTRP58
METAR KP58 301651Z AUTO 27013G19KT 26/14 A2987 RMK AO1 SLP106
T02610144





000
SAUS43 KDTX 301657 COR
MTRP58
METAR KP58 301651Z AUTO 27013G19KT 26/14 A2987 RMK AO1 SLP106
T02610144





000
SAUS43 KDTX 301654 COR
MTRP58
METAR KP58 301651Z AUTO 27013G19KT 26/14 A2987 RMK AO1 SLP106
T02610144





000
SAUS43 KDTX 301552
MTRP58
METAR KP58 301551Z AUTO 28008G21KT 26/15 A2987 RMK AO1 SLP106
T02560150





000
SAUS43 KDTX 301454
MTRP58
METAR KP58 301451Z AUTO 27011G17KT 240V300 25/15 A2987 RMK AO1
SLP105 T02500150 50001





000
SAUS43 KDTX 301454
MTRP58
METAR KP58 301451Z AUTO 27011G17KT 240V300 25/15 A2987 RMK AO1
SLP105 T02500150 50001





000
SAUS43 KDTX 301352
MTRP58
METAR KP58 301351Z AUTO VRB05G18KT 24/16 A2987 RMK AO1 SLP106
T02390156





000
SAUS43 KDTX 301254
MTRP58
METAR KP58 301251Z AUTO 24007KT 22/17 A2987 RMK AO1 SLP107 T02220167





000
SAUS43 KDTX 301254
MTRP58
METAR KP58 301251Z AUTO 24007KT 22/17 A2987 RMK AO1 SLP107 T02220167





000
SAUS43 KDTX 301154
MTRP58
METAR KP58 301151Z AUTO 23006KT 20/16 A2987 RMK AO1 SLP105 70022
T02000161 10211 20183 53008





000
SAUS43 KDTX 301154
MTRP58
METAR KP58 301151Z AUTO 23006KT 20/16 A2987 RMK AO1 SLP105 70022
T02000161 10211 20183 53008





000
SAUS43 KDTX 301053
MTRP58
METAR KP58 301051Z AUTO 23007KT 19/16 A2986 RMK AO1 SLP101 T01890161





000
SAUS43 KDTX 300953
MTRP58
METAR KP58 300951Z AUTO 23007KT 18/16 A2985 RMK AO1 SLP099 T01830161





000
SAUS43 KDTX 300852
MTRP58
METAR KP58 300851Z AUTO 23006KT 18/16 A2984 RMK AO1 SLP097 T01830156
55002





000
SAUS43 KDTX 300754
MTRP58
METAR KP58 300751Z AUTO 23005KT 19/16 A2984 RMK AO1 SLP095 T01890156





000
SAUS43 KDTX 300654
MTRP58
METAR KP58 300651Z AUTO 23006KT 19/16 A2984 RMK AO1 SLP096 T01940156





000
SAUS43 KDTX 300654
MTRP58
METAR KP58 300651Z AUTO 23006KT 19/16 A2984 RMK AO1 SLP096 T01940156





000
SAUS43 KDTX 300553
MTRP58
METAR KP58 300551Z AUTO 24006KT 21/16 A2985 RMK AO1 SLP097 T02060156
10272 20206 56000





000
SAUS43 KDTX 300553
MTRP58
METAR KP58 300551Z AUTO 24006KT 21/16 A2985 RMK AO1 SLP097 T02060156
10272 20206 56000





000
SAUS43 KDTX 300453
MTRP58
METAR KP58 300451Z AUTO 22006KT 22/15 A2985 RMK AO1 SLP096 T02170150
403170206





000
SAUS43 KDTX 300354
MTRP58
METAR KP58 300351Z AUTO VRB04KT 23/16 A2985 RMK AO1 SLP096 T02280156





000
SAUS43 KDTX 300254
MTRP58
METAR KP58 300251Z AUTO 28007KT 24/14 A2985 RMK AO1 SLP097 T02440139
53015





000
SAUS43 KDTX 300153
MTRP58
METAR KP58 300151Z AUTO VRB05KT 24/16 A2983 RMK AO1 SLP091 T02440161





000
SAUS43 KDTX 300052
MTRP58
METAR KP58 300051Z AUTO 25006KT 26/20 A2981 RMK AO1 SLP084 T02560200





000
SAUS43 KDTX 292352
MTRP58
METAR KP58 292351Z AUTO VRB05KT 27/23 A2980 RMK AO1 SLP083 60022
T02720228 10317 20233 55009





000
SAUS43 KDTX 292253
MTRP58
METAR KP58 292251Z AUTO VRB06KT 28/24 A2980 RMK AO1 SLP081 T02830244





    US Dept of Commerce
    National Oceanic and Atmospheric Administration
    National Weather Service
    1325 East West Highway
    Silver Spring, MD 20910
    Page Author: NWS Internet Services Team
Disclaimer
Information Quality
Credits
Glossary
Privacy Policy
Freedom of Information Act (FOIA)
About Us
Career Opportunities